sensor_id;sensor_type;location;lat;lon;timestamp;P1;durP1;ratioP1;P2;durP2;ratioP2
21192;SDS011;10754;51.106;7.164;2023-08-08T00:02:06;3.03;;;1.08;;
21192;SDS011;10754;51.106;7.164;2023-08-08T00:04:33;2.00;;;1.25;;
21192;SDS011;10754;51.106;7.164;2023-08-08T00:06:58;1.65;;;1.10;;
21192;SDS011;10754;51.106;7.164;2023-08-08T00:09:24;1.77;;;0.80;;
21192;SDS011;10754;51.106;7.164;2023-08-08T00:11:49;2.13;;;1.10;;
21192;SDS011;10754;51.106;7.164;2023-08-08T00:14:15;2.20;;;0.90;;
21192;SDS011;10754;51.106;7.164;2023-08-08T00:16:40;3.05;;;0.80;;
21192;SDS011;10754;51.106;7.164;2023-08-08T00:19:06;2.33;;;1.23;;
21192;SDS011;10754;51.106;7.164;2023-08-08T00:21:31;4.10;;;1.13;;
21192;SDS011;10754;51.106;7.164;2023-08-08T00:23:57;4.18;;;0.93;;
21192;SDS011;10754;51.106;7.164;2023-08-08T00:26:23;1.33;;;0.73;;
21192;SDS011;10754;51.106;7.164;2023-08-08T00:28:48;1.45;;;0.90;;
21192;SDS011;10754;51.106;7.164;2023-08-08T00:31:14;1.83;;;1.10;;
21192;SDS011;10754;51.106;7.164;2023-08-08T00:33:42;1.88;;;0.95;;
21192;SDS011;10754;51.106;7.164;2023-08-08T00:36:08;2.35;;;0.90;;
21192;SDS011;10754;51.106;7.164;2023-08-08T00:38:33;2.42;;;1.02;;
21192;SDS011;10754;51.106;7.164;2023-08-08T00:40:59;1.30;;;0.90;;
21192;SDS011;10754;51.106;7.164;2023-08-08T00:43:24;2.17;;;0.93;;
21192;SDS011;10754;51.106;7.164;2023-08-08T00:45:50;1.52;;;1.10;;
21192;SDS011;10754;51.106;7.164;2023-08-08T00:48:15;1.98;;;0.80;;
21192;SDS011;10754;51.106;7.164;2023-08-08T00:50:42;2.47;;;0.90;;
21192;SDS011;10754;51.106;7.164;2023-08-08T00:53:11;2.40;;;1.15;;
21192;SDS011;10754;51.106;7.164;2023-08-08T00:55:37;1.95;;;1.00;;
21192;SDS011;10754;51.106;7.164;2023-08-08T00:58:03;1.40;;;0.90;;
21192;SDS011;10754;51.106;7.164;2023-08-08T01:00:29;1.38;;;1.00;;
21192;SDS011;10754;51.106;7.164;2023-08-08T01:02:55;3.47;;;1.48;;
21192;SDS011;10754;51.106;7.164;2023-08-08T01:05:20;2.75;;;1.00;;
21192;SDS011;10754;51.106;7.164;2023-08-08T01:07:57;2.35;;;1.00;;
21192;SDS011;10754;51.106;7.164;2023-08-08T01:10:30;1.95;;;0.85;;
21192;SDS011;10754;51.106;7.164;2023-08-08T01:13:02;2.17;;;1.05;;
21192;SDS011;10754;51.106;7.164;2023-08-08T01:15:46;1.92;;;1.00;;
21192;SDS011;10754;51.106;7.164;2023-08-08T01:18:13;3.58;;;1.00;;
21192;SDS011;10754;51.106;7.164;2023-08-08T01:20:39;2.55;;;1.23;;
21192;SDS011;10754;51.106;7.164;2023-08-08T01:23:10;4.68;;;1.40;;
21192;SDS011;10754;51.106;7.164;2023-08-08T01:25:41;1.63;;;1.08;;
21192;SDS011;10754;51.106;7.164;2023-08-08T01:28:08;1.83;;;1.00;;
21192;SDS011;10754;51.106;7.164;2023-08-08T01:30:34;1.95;;;1.10;;
21192;SDS011;10754;51.106;7.164;2023-08-08T01:32:59;2.85;;;1.05;;
21192;SDS011;10754;51.106;7.164;2023-08-08T01:35:25;1.35;;;0.95;;
21192;SDS011;10754;51.106;7.164;2023-08-08T01:37:58;2.75;;;1.10;;
21192;SDS011;10754;51.106;7.164;2023-08-08T01:40:31;1.45;;;0.98;;
21192;SDS011;10754;51.106;7.164;2023-08-08T01:42:57;1.17;;;0.82;;
21192;SDS011;10754;51.106;7.164;2023-08-08T01:45:24;3.85;;;1.23;;
21192;SDS011;10754;51.106;7.164;2023-08-08T01:47:50;1.13;;;0.90;;
21192;SDS011;10754;51.106;7.164;2023-08-08T01:50:17;3.00;;;0.80;;
21192;SDS011;10754;51.106;7.164;2023-08-08T01:52:42;1.10;;;1.00;;
21192;SDS011;10754;51.106;7.164;2023-08-08T01:55:08;3.38;;;1.10;;
21192;SDS011;10754;51.106;7.164;2023-08-08T01:57:34;1.77;;;1.05;;
21192;SDS011;10754;51.106;7.164;2023-08-08T01:59:59;3.75;;;1.10;;
21192;SDS011;10754;51.106;7.164;2023-08-08T02:02:25;1.23;;;1.00;;
21192;SDS011;10754;51.106;7.164;2023-08-08T02:04:50;1.70;;;1.20;;
21192;SDS011;10754;51.106;7.164;2023-08-08T02:07:16;2.60;;;1.20;;
21192;SDS011;10754;51.106;7.164;2023-08-08T02:09:41;2.63;;;1.10;;
21192;SDS011;10754;51.106;7.164;2023-08-08T02:12:07;1.88;;;1.13;;
21192;SDS011;10754;51.106;7.164;2023-08-08T02:14:33;3.50;;;1.00;;
21192;SDS011;10754;51.106;7.164;2023-08-08T02:16:58;2.97;;;0.90;;
21192;SDS011;10754;51.106;7.164;2023-08-08T02:19:23;2.60;;;1.08;;
21192;SDS011;10754;51.106;7.164;2023-08-08T02:21:49;1.55;;;1.10;;
21192;SDS011;10754;51.106;7.164;2023-08-08T02:24:15;1.65;;;1.05;;
21192;SDS011;10754;51.106;7.164;2023-08-08T02:26:40;2.92;;;1.20;;
21192;SDS011;10754;51.106;7.164;2023-08-08T02:29:05;3.35;;;1.35;;
21192;SDS011;10754;51.106;7.164;2023-08-08T02:31:31;1.40;;;1.10;;
21192;SDS011;10754;51.106;7.164;2023-08-08T02:33:57;1.85;;;1.10;;
21192;SDS011;10754;51.106;7.164;2023-08-08T02:36:22;2.60;;;1.17;;
21192;SDS011;10754;51.106;7.164;2023-08-08T02:38:48;3.42;;;1.27;;
21192;SDS011;10754;51.106;7.164;2023-08-08T02:41:14;1.98;;;1.10;;
21192;SDS011;10754;51.106;7.164;2023-08-08T02:43:40;2.75;;;1.20;;
21192;SDS011;10754;51.106;7.164;2023-08-08T02:46:05;1.88;;;1.13;;
21192;SDS011;10754;51.106;7.164;2023-08-08T02:48:31;1.75;;;1.30;;
21192;SDS011;10754;51.106;7.164;2023-08-08T02:50:57;3.75;;;1.60;;
21192;SDS011;10754;51.106;7.164;2023-08-08T02:53:23;3.13;;;1.25;;
21192;SDS011;10754;51.106;7.164;2023-08-08T02:55:48;1.75;;;1.10;;
21192;SDS011;10754;51.106;7.164;2023-08-08T02:58:14;2.78;;;1.40;;
21192;SDS011;10754;51.106;7.164;2023-08-08T03:00:39;5.22;;;1.73;;
21192;SDS011;10754;51.106;7.164;2023-08-08T03:03:05;2.13;;;1.58;;
21192;SDS011;10754;51.106;7.164;2023-08-08T03:05:30;2.55;;;1.20;;
21192;SDS011;10754;51.106;7.164;2023-08-08T03:07:56;2.92;;;1.20;;
21192;SDS011;10754;51.106;7.164;2023-08-08T03:10:21;1.20;;;1.10;;
21192;SDS011;10754;51.106;7.164;2023-08-08T03:12:47;2.63;;;1.38;;
21192;SDS011;10754;51.106;7.164;2023-08-08T03:15:13;2.55;;;1.10;;
21192;SDS011;10754;51.106;7.164;2023-08-08T03:17:39;2.40;;;1.60;;
21192;SDS011;10754;51.106;7.164;2023-08-08T03:20:04;1.88;;;1.13;;
21192;SDS011;10754;51.106;7.164;2023-08-08T03:22:31;4.03;;;1.52;;
21192;SDS011;10754;51.106;7.164;2023-08-08T03:24:57;3.40;;;1.60;;
21192;SDS011;10754;51.106;7.164;2023-08-08T03:27:23;3.58;;;1.20;;
21192;SDS011;10754;51.106;7.164;2023-08-08T03:29:49;3.63;;;1.40;;
21192;SDS011;10754;51.106;7.164;2023-08-08T03:32:14;3.25;;;1.25;;
21192;SDS011;10754;51.106;7.164;2023-08-08T03:34:40;2.50;;;1.50;;
21192;SDS011;10754;51.106;7.164;2023-08-08T03:37:05;5.82;;;1.55;;
21192;SDS011;10754;51.106;7.164;2023-08-08T03:39:31;1.40;;;1.30;;
21192;SDS011;10754;51.106;7.164;2023-08-08T03:41:56;4.05;;;1.20;;
21192;SDS011;10754;51.106;7.164;2023-08-08T03:44:22;2.42;;;1.08;;
21192;SDS011;10754;51.106;7.164;2023-08-08T03:46:47;2.65;;;1.20;;
21192;SDS011;10754;51.106;7.164;2023-08-08T03:49:13;2.80;;;1.13;;
21192;SDS011;10754;51.106;7.164;2023-08-08T03:51:38;4.25;;;1.20;;
21192;SDS011;10754;51.106;7.164;2023-08-08T03:54:04;4.25;;;1.50;;
21192;SDS011;10754;51.106;7.164;2023-08-08T03:56:29;4.15;;;1.33;;
21192;SDS011;10754;51.106;7.164;2023-08-08T03:58:55;2.28;;;1.40;;
21192;SDS011;10754;51.106;7.164;2023-08-08T04:01:22;3.50;;;1.65;;
21192;SDS011;10754;51.106;7.164;2023-08-08T04:03:48;1.98;;;1.30;;
21192;SDS011;10754;51.106;7.164;2023-08-08T04:06:13;2.00;;;1.10;;
21192;SDS011;10754;51.106;7.164;2023-08-08T04:08:39;2.15;;;1.20;;
21192;SDS011;10754;51.106;7.164;2023-08-08T04:11:04;3.60;;;1.20;;
21192;SDS011;10754;51.106;7.164;2023-08-08T04:13:30;2.28;;;1.17;;
21192;SDS011;10754;51.106;7.164;2023-08-08T04:15:56;2.28;;;1.48;;
21192;SDS011;10754;51.106;7.164;2023-08-08T04:18:21;8.52;;;1.90;;
21192;SDS011;10754;51.106;7.164;2023-08-08T04:20:47;3.42;;;1.08;;
21192;SDS011;10754;51.106;7.164;2023-08-08T04:23:12;5.65;;;1.58;;
21192;SDS011;10754;51.106;7.164;2023-08-08T04:25:38;1.85;;;1.10;;
21192;SDS011;10754;51.106;7.164;2023-08-08T04:28:04;2.63;;;1.30;;
21192;SDS011;10754;51.106;7.164;2023-08-08T04:30:29;5.15;;;1.58;;
21192;SDS011;10754;51.106;7.164;2023-08-08T04:32:55;4.95;;;1.55;;
21192;SDS011;10754;51.106;7.164;2023-08-08T04:35:20;3.35;;;1.45;;
21192;SDS011;10754;51.106;7.164;2023-08-08T04:37:46;4.50;;;1.65;;
21192;SDS011;10754;51.106;7.164;2023-08-08T04:40:11;3.15;;;1.30;;
21192;SDS011;10754;51.106;7.164;2023-08-08T04:42:37;5.93;;;1.90;;
21192;SDS011;10754;51.106;7.164;2023-08-08T04:45:02;2.97;;;1.17;;
21192;SDS011;10754;51.106;7.164;2023-08-08T04:47:29;3.20;;;1.30;;
21192;SDS011;10754;51.106;7.164;2023-08-08T04:49:54;3.67;;;1.80;;
21192;SDS011;10754;51.106;7.164;2023-08-08T04:52:20;3.47;;;1.52;;
21192;SDS011;10754;51.106;7.164;2023-08-08T04:54:45;2.58;;;1.48;;
21192;SDS011;10754;51.106;7.164;2023-08-08T04:57:11;3.33;;;1.50;;
21192;SDS011;10754;51.106;7.164;2023-08-08T04:59:36;4.90;;;1.50;;
21192;SDS011;10754;51.106;7.164;2023-08-08T05:02:02;3.50;;;1.65;;
21192;SDS011;10754;51.106;7.164;2023-08-08T05:04:28;4.28;;;1.83;;
21192;SDS011;10754;51.106;7.164;2023-08-08T05:06:53;2.92;;;1.80;;
21192;SDS011;10754;51.106;7.164;2023-08-08T05:09:19;5.50;;;2.10;;
21192;SDS011;10754;51.106;7.164;2023-08-08T05:11:45;4.70;;;2.10;;
21192;SDS011;10754;51.106;7.164;2023-08-08T05:14:11;6.03;;;2.05;;
21192;SDS011;10754;51.106;7.164;2023-08-08T05:16:36;4.80;;;1.63;;
21192;SDS011;10754;51.106;7.164;2023-08-08T05:19:02;2.55;;;1.60;;
21192;SDS011;10754;51.106;7.164;2023-08-08T05:21:28;5.13;;;2.30;;
21192;SDS011;10754;51.106;7.164;2023-08-08T05:23:53;7.50;;;2.03;;
21192;SDS011;10754;51.106;7.164;2023-08-08T05:26:19;3.47;;;1.90;;
21192;SDS011;10754;51.106;7.164;2023-08-08T05:28:44;2.75;;;1.73;;
21192;SDS011;10754;51.106;7.164;2023-08-08T05:31:10;4.57;;;1.95;;
21192;SDS011;10754;51.106;7.164;2023-08-08T05:33:35;5.22;;;1.60;;
21192;SDS011;10754;51.106;7.164;2023-08-08T05:36:01;4.43;;;1.92;;
21192;SDS011;10754;51.106;7.164;2023-08-08T05:38:26;3.83;;;1.75;;
21192;SDS011;10754;51.106;7.164;2023-08-08T05:40:52;4.20;;;1.58;;
21192;SDS011;10754;51.106;7.164;2023-08-08T05:43:17;4.82;;;1.95;;
21192;SDS011;10754;51.106;7.164;2023-08-08T05:45:43;3.25;;;1.73;;
21192;SDS011;10754;51.106;7.164;2023-08-08T05:48:10;3.10;;;1.98;;
21192;SDS011;10754;51.106;7.164;2023-08-08T05:50:37;5.05;;;1.90;;
21192;SDS011;10754;51.106;7.164;2023-08-08T05:53:03;4.18;;;1.73;;
21192;SDS011;10754;51.106;7.164;2023-08-08T05:55:29;5.80;;;2.03;;
21192;SDS011;10754;51.106;7.164;2023-08-08T05:57:54;6.10;;;2.28;;
21192;SDS011;10754;51.106;7.164;2023-08-08T06:00:20;2.85;;;1.58;;
21192;SDS011;10754;51.106;7.164;2023-08-08T06:02:45;4.32;;;2.10;;
21192;SDS011;10754;51.106;7.164;2023-08-08T06:05:11;7.65;;;2.38;;
21192;SDS011;10754;51.106;7.164;2023-08-08T06:07:37;6.82;;;2.60;;
21192;SDS011;10754;51.106;7.164;2023-08-08T06:10:03;3.90;;;2.33;;
21192;SDS011;10754;51.106;7.164;2023-08-08T06:12:29;4.45;;;2.35;;
21192;SDS011;10754;51.106;7.164;2023-08-08T06:14:54;7.60;;;2.70;;
21192;SDS011;10754;51.106;7.164;2023-08-08T06:17:20;4.80;;;2.25;;
21192;SDS011;10754;51.106;7.164;2023-08-08T06:19:48;4.18;;;2.50;;
21192;SDS011;10754;51.106;7.164;2023-08-08T06:22:14;6.25;;;2.13;;
21192;SDS011;10754;51.106;7.164;2023-08-08T06:24:40;4.93;;;2.35;;
21192;SDS011;10754;51.106;7.164;2023-08-08T06:27:06;5.18;;;2.58;;
21192;SDS011;10754;51.106;7.164;2023-08-08T06:29:31;4.35;;;2.00;;
21192;SDS011;10754;51.106;7.164;2023-08-08T06:31:57;6.15;;;2.00;;
21192;SDS011;10754;51.106;7.164;2023-08-08T06:34:22;4.60;;;2.38;;
21192;SDS011;10754;51.106;7.164;2023-08-08T06:36:48;4.60;;;2.10;;
21192;SDS011;10754;51.106;7.164;2023-08-08T06:39:13;3.67;;;2.35;;
21192;SDS011;10754;51.106;7.164;2023-08-08T06:41:39;7.80;;;2.30;;
21192;SDS011;10754;51.106;7.164;2023-08-08T06:44:04;5.35;;;2.15;;
21192;SDS011;10754;51.106;7.164;2023-08-08T06:46:30;3.85;;;1.95;;
21192;SDS011;10754;51.106;7.164;2023-08-08T06:48:55;6.20;;;1.98;;
21192;SDS011;10754;51.106;7.164;2023-08-08T06:51:26;6.22;;;2.05;;
21192;SDS011;10754;51.106;7.164;2023-08-08T06:53:52;6.65;;;1.77;;
21192;SDS011;10754;51.106;7.164;2023-08-08T06:56:18;8.27;;;2.15;;
21192;SDS011;10754;51.106;7.164;2023-08-08T06:58:43;4.53;;;1.70;;
21192;SDS011;10754;51.106;7.164;2023-08-08T07:01:09;3.17;;;1.48;;
21192;SDS011;10754;51.106;7.164;2023-08-08T07:03:35;5.22;;;1.85;;
21192;SDS011;10754;51.106;7.164;2023-08-08T07:06:02;3.17;;;1.90;;
21192;SDS011;10754;51.106;7.164;2023-08-08T07:08:28;3.50;;;1.45;;
21192;SDS011;10754;51.106;7.164;2023-08-08T07:10:54;2.95;;;1.70;;
21192;SDS011;10754;51.106;7.164;2023-08-08T07:13:21;5.78;;;1.95;;
21192;SDS011;10754;51.106;7.164;2023-08-08T07:15:47;2.90;;;1.73;;
21192;SDS011;10754;51.106;7.164;2023-08-08T07:18:12;6.18;;;2.45;;
21192;SDS011;10754;51.106;7.164;2023-08-08T07:20:38;5.07;;;2.28;;
21192;SDS011;10754;51.106;7.164;2023-08-08T07:23:04;6.78;;;2.17;;
21192;SDS011;10754;51.106;7.164;2023-08-08T07:25:29;4.15;;;1.77;;
21192;SDS011;10754;51.106;7.164;2023-08-08T07:27:55;3.67;;;2.45;;
21192;SDS011;10754;51.106;7.164;2023-08-08T07:30:20;4.50;;;2.15;;
21192;SDS011;10754;51.106;7.164;2023-08-08T07:32:46;5.35;;;1.77;;
21192;SDS011;10754;51.106;7.164;2023-08-08T07:35:12;6.63;;;2.30;;
21192;SDS011;10754;51.106;7.164;2023-08-08T07:37:37;5.65;;;2.42;;
21192;SDS011;10754;51.106;7.164;2023-08-08T07:40:12;5.55;;;2.17;;
21192;SDS011;10754;51.106;7.164;2023-08-08T07:42:39;4.25;;;1.83;;
21192;SDS011;10754;51.106;7.164;2023-08-08T07:45:05;6.72;;;2.25;;
21192;SDS011;10754;51.106;7.164;2023-08-08T07:47:30;5.53;;;2.35;;
21192;SDS011;10754;51.106;7.164;2023-08-08T07:59:44;6.78;;;2.22;;
21192;SDS011;10754;51.106;7.164;2023-08-08T08:27:38;3.30;;;1.83;;
21192;SDS011;10754;51.106;7.164;2023-08-08T08:41:27;3.38;;;2.03;;
21192;SDS011;10754;51.106;7.164;2023-08-08T08:58:39;4.55;;;2.25;;
21192;SDS011;10754;51.106;7.164;2023-08-08T09:08:33;5.88;;;2.42;;
21192;SDS011;10754;51.106;7.164;2023-08-08T09:11:24;5.13;;;2.45;;
21192;SDS011;10754;51.106;7.164;2023-08-08T09:24:03;6.93;;;3.03;;
21192;SDS011;10754;51.106;7.164;2023-08-08T09:30:52;8.52;;;3.63;;
21192;SDS011;10754;51.106;7.164;2023-08-08T09:34:07;6.55;;;3.17;;
21192;SDS011;10754;51.106;7.164;2023-08-08T09:37:30;5.57;;;2.70;;
21192;SDS011;10754;51.106;7.164;2023-08-08T09:43:01;5.28;;;2.88;;
21192;SDS011;10754;51.106;7.164;2023-08-08T09:46:08;6.05;;;3.17;;
21192;SDS011;10754;51.106;7.164;2023-08-08T09:49:01;4.63;;;3.17;;
21192;SDS011;10754;51.106;7.164;2023-08-08T09:54:50;4.38;;;3.30;;
21192;SDS011;10754;51.106;7.164;2023-08-08T10:00:36;7.30;;;3.47;;
21192;SDS011;10754;51.106;7.164;2023-08-08T10:03:30;5.18;;;3.40;;
21192;SDS011;10754;51.106;7.164;2023-08-08T10:09:26;7.63;;;3.65;;
21192;SDS011;10754;51.106;7.164;2023-08-08T10:12:19;4.82;;;3.63;;
21192;SDS011;10754;51.106;7.164;2023-08-08T10:14:58;5.10;;;3.25;;
21192;SDS011;10754;51.106;7.164;2023-08-08T10:17:56;6.30;;;3.20;;
21192;SDS011;10754;51.106;7.164;2023-08-08T10:21:19;4.78;;;3.10;;
21192;SDS011;10754;51.106;7.164;2023-08-08T10:35:10;5.65;;;2.80;;
21192;SDS011;10754;51.106;7.164;2023-08-08T10:38:22;6.22;;;3.10;;
21192;SDS011;10754;51.106;7.164;2023-08-08T10:41:43;6.97;;;3.10;;
21192;SDS011;10754;51.106;7.164;2023-08-08T10:47:42;4.47;;;2.85;;
21192;SDS011;10754;51.106;7.164;2023-08-08T10:57:27;5.22;;;2.92;;
21192;SDS011;10754;51.106;7.164;2023-08-08T11:07:14;4.30;;;2.20;;
21192;SDS011;10754;51.106;7.164;2023-08-08T11:13:16;3.88;;;2.38;;
21192;SDS011;10754;51.106;7.164;2023-08-08T11:20:04;2.88;;;2.22;;
21192;SDS011;10754;51.106;7.164;2023-08-08T11:22:58;3.40;;;2.30;;
21192;SDS011;10754;51.106;7.164;2023-08-08T11:25:47;4.28;;;2.55;;
21192;SDS011;10754;51.106;7.164;2023-08-08T11:35:29;3.97;;;2.22;;
21192;SDS011;10754;51.106;7.164;2023-08-08T11:38:30;3.42;;;2.10;;
21192;SDS011;10754;51.106;7.164;2023-08-08T11:41:15;2.50;;;1.90;;
21192;SDS011;10754;51.106;7.164;2023-08-08T11:47:40;2.30;;;1.73;;
21192;SDS011;10754;51.106;7.164;2023-08-08T11:50:41;3.88;;;2.20;;
21192;SDS011;10754;51.106;7.164;2023-08-08T11:53:17;3.28;;;1.63;;
21192;SDS011;10754;51.106;7.164;2023-08-08T11:56:00;2.30;;;1.80;;
21192;SDS011;10754;51.106;7.164;2023-08-08T11:58:52;3.35;;;1.52;;
21192;SDS011;10754;51.106;7.164;2023-08-08T12:02:11;3.88;;;1.75;;
21192;SDS011;10754;51.106;7.164;2023-08-08T12:05:03;2.70;;;1.58;;
21192;SDS011;10754;51.106;7.164;2023-08-08T12:17:37;4.05;;;1.73;;
21192;SDS011;10754;51.106;7.164;2023-08-08T12:20:35;3.22;;;1.95;;
21192;SDS011;10754;51.106;7.164;2023-08-08T12:23:03;3.38;;;1.40;;
21192;SDS011;10754;51.106;7.164;2023-08-08T12:25:51;3.15;;;1.67;;
21192;SDS011;10754;51.106;7.164;2023-08-08T12:32:04;2.78;;;1.60;;
21192;SDS011;10754;51.106;7.164;2023-08-08T12:38:47;3.35;;;1.67;;
21192;SDS011;10754;51.106;7.164;2023-08-08T12:44:49;4.57;;;2.03;;
21192;SDS011;10754;51.106;7.164;2023-08-08T12:57:47;4.65;;;2.00;;
21192;SDS011;10754;51.106;7.164;2023-08-08T13:00:59;4.20;;;1.77;;
21192;SDS011;10754;51.106;7.164;2023-08-08T13:03:51;3.40;;;1.58;;
21192;SDS011;10754;51.106;7.164;2023-08-08T13:06:52;3.15;;;1.58;;
21192;SDS011;10754;51.106;7.164;2023-08-08T13:10:00;2.75;;;1.70;;
21192;SDS011;10754;51.106;7.164;2023-08-08T13:13:04;2.15;;;1.52;;
21192;SDS011;10754;51.106;7.164;2023-08-08T13:16:16;1.88;;;1.30;;
21192;SDS011;10754;51.106;7.164;2023-08-08T13:19:19;2.60;;;1.88;;
21192;SDS011;10754;51.106;7.164;2023-08-08T13:25:28;1.70;;;1.45;;
21192;SDS011;10754;51.106;7.164;2023-08-08T13:28:29;2.78;;;1.77;;
21192;SDS011;10754;51.106;7.164;2023-08-08T13:34:58;2.72;;;1.80;;
21192;SDS011;10754;51.106;7.164;2023-08-08T13:51:47;5.25;;;2.17;;
21192;SDS011;10754;51.106;7.164;2023-08-08T14:04:15;6.22;;;3.00;;
21192;SDS011;10754;51.106;7.164;2023-08-08T14:14:15;3.47;;;2.78;;
21192;SDS011;10754;51.106;7.164;2023-08-08T14:17:42;4.55;;;2.53;;
21192;SDS011;10754;51.106;7.164;2023-08-08T14:20:20;2.90;;;1.98;;
21192;SDS011;10754;51.106;7.164;2023-08-08T14:29:37;2.80;;;1.60;;
21192;SDS011;10754;51.106;7.164;2023-08-08T14:35:42;3.35;;;1.40;;
21192;SDS011;10754;51.106;7.164;2023-08-08T14:38:37;3.25;;;1.50;;
21192;SDS011;10754;51.106;7.164;2023-08-08T14:44:30;5.25;;;1.40;;
21192;SDS011;10754;51.106;7.164;2023-08-08T14:47:25;3.63;;;1.20;;
21192;SDS011;10754;51.106;7.164;2023-08-08T14:50:44;3.17;;;1.40;;
21192;SDS011;10754;51.106;7.164;2023-08-08T14:56:45;3.45;;;1.75;;
21192;SDS011;10754;51.106;7.164;2023-08-08T14:59:11;1.90;;;1.75;;
21192;SDS011;10754;51.106;7.164;2023-08-08T15:02:20;1.42;;;1.02;;
21192;SDS011;10754;51.106;7.164;2023-08-08T15:26:19;3.28;;;1.30;;
21192;SDS011;10754;51.106;7.164;2023-08-08T15:28:49;2.53;;;1.45;;
21192;SDS011;10754;51.106;7.164;2023-08-08T15:35:44;4.00;;;1.58;;
21192;SDS011;10754;51.106;7.164;2023-08-08T15:45:12;4.15;;;1.40;;
21192;SDS011;10754;51.106;7.164;2023-08-08T16:02:26;2.70;;;1.10;;
21192;SDS011;10754;51.106;7.164;2023-08-08T16:05:09;2.72;;;1.38;;
21192;SDS011;10754;51.106;7.164;2023-08-08T16:11:07;3.00;;;1.48;;
21192;SDS011;10754;51.106;7.164;2023-08-08T16:21:24;4.15;;;1.13;;
21192;SDS011;10754;51.106;7.164;2023-08-08T16:24:33;3.17;;;1.45;;
21192;SDS011;10754;51.106;7.164;2023-08-08T16:27:41;1.55;;;1.00;;
21192;SDS011;10754;51.106;7.164;2023-08-08T16:42:07;2.08;;;1.30;;
21192;SDS011;10754;51.106;7.164;2023-08-08T16:44:50;2.40;;;1.35;;
21192;SDS011;10754;51.106;7.164;2023-08-08T16:51:06;1.83;;;1.20;;
21192;SDS011;10754;51.106;7.164;2023-08-08T16:57:22;6.72;;;1.25;;
21192;SDS011;10754;51.106;7.164;2023-08-08T17:00:43;1.67;;;0.98;;
21192;SDS011;10754;51.106;7.164;2023-08-08T17:03:17;1.63;;;1.20;;
21192;SDS011;10754;51.106;7.164;2023-08-08T17:06:47;2.10;;;1.10;;
21192;SDS011;10754;51.106;7.164;2023-08-08T17:16:24;1.27;;;1.10;;
21192;SDS011;10754;51.106;7.164;2023-08-08T17:22:56;2.97;;;1.20;;
21192;SDS011;10754;51.106;7.164;2023-08-08T17:26:00;3.58;;;1.10;;
21192;SDS011;10754;51.106;7.164;2023-08-08T17:35:28;3.13;;;1.20;;
21192;SDS011;10754;51.106;7.164;2023-08-08T17:38:40;2.15;;;1.00;;
21192;SDS011;10754;51.106;7.164;2023-08-08T17:41:40;1.33;;;0.82;;
21192;SDS011;10754;51.106;7.164;2023-08-08T17:44:32;1.83;;;1.15;;
21192;SDS011;10754;51.106;7.164;2023-08-08T17:46:58;1.92;;;0.88;;
21192;SDS011;10754;51.106;7.164;2023-08-08T17:49:26;2.60;;;1.02;;
21192;SDS011;10754;51.106;7.164;2023-08-08T17:51:53;1.33;;;1.23;;
21192;SDS011;10754;51.106;7.164;2023-08-08T17:54:21;2.75;;;1.45;;
21192;SDS011;10754;51.106;7.164;2023-08-08T18:00:17;2.03;;;1.02;;
21192;SDS011;10754;51.106;7.164;2023-08-08T18:03:15;2.10;;;1.00;;
21192;SDS011;10754;51.106;7.164;2023-08-08T18:12:43;1.75;;;0.98;;
21192;SDS011;10754;51.106;7.164;2023-08-08T18:18:55;4.35;;;1.17;;
21192;SDS011;10754;51.106;7.164;2023-08-08T18:21:53;1.70;;;0.90;;
21192;SDS011;10754;51.106;7.164;2023-08-08T18:24:56;1.20;;;1.10;;
21192;SDS011;10754;51.106;7.164;2023-08-08T18:27:53;1.40;;;1.05;;
21192;SDS011;10754;51.106;7.164;2023-08-08T18:44:42;2.03;;;0.98;;
21192;SDS011;10754;51.106;7.164;2023-08-08T18:51:08;2.67;;;0.95;;
21192;SDS011;10754;51.106;7.164;2023-08-08T18:53:48;1.20;;;1.10;;
21192;SDS011;10754;51.106;7.164;2023-08-08T19:00:43;2.72;;;1.10;;
21192;SDS011;10754;51.106;7.164;2023-08-08T19:03:35;1.83;;;0.90;;
21192;SDS011;10754;51.106;7.164;2023-08-08T19:07:00;1.67;;;1.02;;
21192;SDS011;10754;51.106;7.164;2023-08-08T19:13:05;1.25;;;0.70;;
21192;SDS011;10754;51.106;7.164;2023-08-08T19:15:59;2.10;;;0.88;;
21192;SDS011;10754;51.106;7.164;2023-08-08T19:19:22;2.83;;;1.00;;
21192;SDS011;10754;51.106;7.164;2023-08-08T19:25:49;1.13;;;0.80;;
21192;SDS011;10754;51.106;7.164;2023-08-08T19:28:36;2.17;;;1.00;;
21192;SDS011;10754;51.106;7.164;2023-08-08T19:31:25;1.45;;;0.77;;
21192;SDS011;10754;51.106;7.164;2023-08-08T19:34:23;1.88;;;0.82;;
21192;SDS011;10754;51.106;7.164;2023-08-08T19:37:12;1.92;;;0.77;;
21192;SDS011;10754;51.106;7.164;2023-08-08T19:43:33;1.38;;;1.00;;
21192;SDS011;10754;51.106;7.164;2023-08-08T19:46:39;1.75;;;0.88;;
21192;SDS011;10754;51.106;7.164;2023-08-08T19:49:51;1.42;;;0.88;;
21192;SDS011;10754;51.106;7.164;2023-08-08T19:58:42;6.38;;;1.50;;
21192;SDS011;10754;51.106;7.164;2023-08-08T20:01:32;3.30;;;1.30;;
21192;SDS011;10754;51.106;7.164;2023-08-08T20:03:57;3.03;;;1.10;;
21192;SDS011;10754;51.106;7.164;2023-08-08T20:06:23;3.30;;;1.10;;
21192;SDS011;10754;51.106;7.164;2023-08-08T20:08:48;1.73;;;0.88;;
21192;SDS011;10754;51.106;7.164;2023-08-08T20:11:14;2.22;;;1.17;;
21192;SDS011;10754;51.106;7.164;2023-08-08T20:13:40;4.65;;;1.52;;
21192;SDS011;10754;51.106;7.164;2023-08-08T20:16:06;1.98;;;1.00;;
21192;SDS011;10754;51.106;7.164;2023-08-08T20:18:31;1.52;;;1.10;;
21192;SDS011;10754;51.106;7.164;2023-08-08T20:20:57;2.50;;;1.20;;
21192;SDS011;10754;51.106;7.164;2023-08-08T20:23:23;1.50;;;1.10;;
21192;SDS011;10754;51.106;7.164;2023-08-08T20:25:48;1.50;;;1.05;;
21192;SDS011;10754;51.106;7.164;2023-08-08T20:28:14;2.58;;;1.25;;
21192;SDS011;10754;51.106;7.164;2023-08-08T20:30:41;2.05;;;1.20;;
21192;SDS011;10754;51.106;7.164;2023-08-08T20:33:07;2.08;;;1.23;;
21192;SDS011;10754;51.106;7.164;2023-08-08T20:35:33;3.08;;;1.10;;
21192;SDS011;10754;51.106;7.164;2023-08-08T20:37:58;2.20;;;1.33;;
21192;SDS011;10754;51.106;7.164;2023-08-08T20:40:24;2.08;;;1.38;;
21192;SDS011;10754;51.106;7.164;2023-08-08T20:42:49;1.70;;;1.40;;
21192;SDS011;10754;51.106;7.164;2023-08-08T20:45:15;1.63;;;1.27;;
21192;SDS011;10754;51.106;7.164;2023-08-08T20:47:40;2.75;;;1.48;;
21192;SDS011;10754;51.106;7.164;2023-08-08T20:50:07;2.50;;;1.60;;
21192;SDS011;10754;51.106;7.164;2023-08-08T20:52:33;2.55;;;1.38;;
21192;SDS011;10754;51.106;7.164;2023-08-08T20:55:00;1.90;;;1.63;;
21192;SDS011;10754;51.106;7.164;2023-08-08T20:57:26;2.08;;;1.48;;
21192;SDS011;10754;51.106;7.164;2023-08-08T20:59:52;2.63;;;1.45;;
21192;SDS011;10754;51.106;7.164;2023-08-08T21:02:17;2.78;;;2.17;;
21192;SDS011;10754;51.106;7.164;2023-08-08T21:04:43;2.65;;;1.83;;
21192;SDS011;10754;51.106;7.164;2023-08-08T21:07:08;1.98;;;1.40;;
21192;SDS011;10754;51.106;7.164;2023-08-08T21:09:37;2.17;;;1.63;;
21192;SDS011;10754;51.106;7.164;2023-08-08T21:12:04;4.05;;;1.63;;
21192;SDS011;10754;51.106;7.164;2023-08-08T21:14:29;2.42;;;1.67;;
21192;SDS011;10754;51.106;7.164;2023-08-08T21:16:55;1.77;;;1.67;;
21192;SDS011;10754;51.106;7.164;2023-08-08T21:19:20;1.77;;;1.55;;
21192;SDS011;10754;51.106;7.164;2023-08-08T21:21:46;2.08;;;1.88;;
21192;SDS011;10754;51.106;7.164;2023-08-08T21:24:11;2.00;;;1.80;;
21192;SDS011;10754;51.106;7.164;2023-08-08T21:26:37;2.63;;;1.90;;
21192;SDS011;10754;51.106;7.164;2023-08-08T21:29:02;2.22;;;1.60;;
21192;SDS011;10754;51.106;7.164;2023-08-08T21:31:28;1.70;;;1.58;;
21192;SDS011;10754;51.106;7.164;2023-08-08T21:33:53;2.10;;;1.65;;
21192;SDS011;10754;51.106;7.164;2023-08-08T21:36:19;2.78;;;1.83;;
21192;SDS011;10754;51.106;7.164;2023-08-08T21:38:45;2.97;;;1.80;;
21192;SDS011;10754;51.106;7.164;2023-08-08T21:41:10;2.28;;;1.60;;
21192;SDS011;10754;51.106;7.164;2023-08-08T21:43:36;2.17;;;1.35;;
21192;SDS011;10754;51.106;7.164;2023-08-08T21:46:03;2.60;;;1.70;;